Time;durP1;ratioP1;P1;durP2;ratioP2;P2;SDS_P1;SDS_P2;PMS_P1;PMS_P2;Temp;Humidity;BMP_temperature;BMP_pressure;BME280_temperature;BME280_humidity;BME280_pressure;Samples;Min_cycle;Max_cycle;Signal;HPM_P1;HPM_P2
2021/10/12 00:01:36;;;;;;;60.00;29.37;;;;;;;;;;5057176;28;20188;-85
2021/10/12 00:04:02;;;;;;;64.77;31.63;;;6.20;99.90;;;;;;5056072;28;20179;-85
2021/10/12 00:06:28;;;;;;;55.93;29.53;;;6.20;99.90;;;;;;5055191;28;20209;-86
2021/10/12 00:08:56;;;;;;;58.83;29.67;;;6.10;99.90;;;;;;5054691;28;20334;-86
2021/10/12 00:11:24;;;;;;;61.87;28.30;;;6.30;99.90;;;;;;5054978;28;20184;-87
2021/10/12 00:13:50;;;;;;;58.40;29.07;;;6.30;99.90;;;;;;5055010;28;20184;-87
2021/10/12 00:16:16;;;;;;;66.47;30.27;;;;;;;;;;5038284;28;20191;-87
2021/10/12 00:18:42;;;;;;;60.70;29.37;;;6.30;99.90;;;;;;5071041;28;20250;-87
2021/10/12 00:21:08;;;;;;;55.37;28.50;;;;;;;;;;5038225;28;20281;-87
2021/10/12 00:23:34;;;;;;;60.17;28.37;;;6.30;99.90;;;;;;5071383;28;20183;-87
2021/10/12 00:26:00;;;;;;;57.60;28.57;;;6.40;99.90;;;;;;5037775;28;20180;-86
2021/10/12 00:28:26;;;;;;;58.17;28.93;;;;;;;;;;5038078;28;20207;-87
2021/10/12 00:30:52;;;;;;;59.00;28.27;;;;;;;;;;5070904;28;20274;-86
2021/10/12 00:33:18;;;;;;;62.70;28.97;;;6.40;99.90;;;;;;5054726;28;20228;-86
2021/10/12 00:35:44;;;;;;;64.07;28.40;;;;;;;;;;5054108;28;20639;-88
2021/10/12 00:38:09;;;;;;;52.33;29.37;;;6.40;99.90;;;;;;5054356;28;20212;-87
2021/10/12 00:40:37;;;;;;;63.30;28.23;;;6.40;99.90;;;;;;5054125;28;20268;-86
2021/10/12 00:43:03;;;;;;;56.50;28.93;;;6.40;99.90;;;;;;5037514;28;20184;-86
2021/10/12 00:45:30;;;;;;;58.70;29.67;;;6.30;99.90;;;;;;5055780;28;20188;-86
2021/10/12 00:48:01;;;;;;;56.53;29.60;;;6.60;99.90;;;;;;5055194;28;20179;-86
2021/10/12 00:50:29;;;;;;;60.43;29.43;;;6.20;99.90;;;;;;5054071;28;20180;-86
2021/10/12 00:52:55;;;;;;;56.77;30.37;;;6.30;99.90;;;;;;5053862;28;20233;-86
2021/10/12 00:55:21;;;;;;;65.73;31.90;;;;;;;;;;5053891;28;20590;-86
2021/10/12 00:57:47;;;;;;;69.67;31.73;;;;;;;;;;5070404;28;20184;-86
2021/10/12 01:00:13;;;;;;;63.87;31.23;;;;;;;;;;5070667;28;20196;-86
2021/10/12 01:02:39;;;;;;;62.90;31.70;;;;;;;;;;5055617;28;20207;-86
2021/10/12 01:05:06;;;;;;;65.17;30.60;;;5.80;99.90;;;;;;5069931;28;20218;-86
2021/10/12 01:07:32;;;;;;;65.37;30.23;;;;;;;;;;5036877;28;20346;-86
2021/10/12 01:09:58;;;;;;;68.70;31.67;;;5.90;99.90;;;;;;5070202;28;20270;-86
2021/10/12 01:12:24;;;;;;;60.30;30.17;;;5.90;99.90;;;;;;5037409;28;20180;-86
2021/10/12 01:14:50;;;;;;;69.80;31.73;;;5.80;99.90;;;;;;5086841;28;20191;-85
2021/10/12 01:17:15;;;;;;;66.60;30.87;;;5.80;99.90;;;;;;5053963;28;20183;-85
2021/10/12 01:19:41;;;;;;;69.47;31.93;;;5.80;99.90;;;;;;5037301;28;20666;-85
2021/10/12 01:22:06;;;;;;;67.40;31.97;;;5.70;99.90;;;;;;5057921;28;20642;-85
2021/10/12 01:24:32;;;;;;;68.47;32.50;;;5.60;99.90;;;;;;5058360;28;20305;-85
2021/10/12 01:26:58;;;;;;;59.17;29.83;;;5.60;99.90;;;;;;5056402;28;20195;-85
2021/10/12 01:29:23;;;;;;;66.80;32.70;;;5.50;99.90;;;;;;5089571;28;20642;-84
2021/10/12 01:31:49;;;;;;;59.77;30.57;;;5.50;99.90;;;;;;5056938;28;20191;-88
2021/10/12 01:34:20;;;;;;;64.90;33.17;;;5.50;99.90;;;;;;5076844;28;20216;-85
2021/10/12 01:36:48;;;;;;;72.80;33.17;;;5.40;99.90;;;;;;5060521;28;20184;-86
2021/10/12 01:39:15;;;;;;;69.83;32.67;;;5.50;99.90;;;;;;5076273;28;20211;-86
2021/10/12 01:41:41;;;;;;;67.63;32.37;;;5.40;99.90;;;;;;5044129;28;20180;-86
2021/10/12 01:44:11;;;;;;;66.10;31.73;;;5.30;99.90;;;;;;5059184;28;20183;-86
2021/10/12 01:46:37;;;;;;;62.87;31.53;;;5.30;99.90;;;;;;5059847;28;20195;-85
2021/10/12 01:49:02;;;;;;;61.30;31.90;;;5.30;99.90;;;;;;5062501;28;20194;-87
2021/10/12 01:51:28;;;;;;;64.97;32.63;;;5.60;99.90;;;;;;5057849;28;20188;-86
2021/10/12 01:53:54;;;;;;;62.53;31.37;;;;;;;;;;5075037;28;20279;-86
2021/10/12 01:56:20;;;;;;;64.90;29.67;;;5.20;99.90;;;;;;5059393;28;20176;-86
2021/10/12 01:58:50;;;;;;;65.13;32.23;;;;;;;;;;5058781;28;20214;-86
2021/10/12 02:01:25;;;;;;;70.77;31.03;;;5.10;99.90;;;;;;5059889;28;20183;-86
2021/10/12 02:03:51;;;;;;;67.33;32.20;;;;;;;;;;5056639;28;20194;-85
2021/10/12 02:06:17;;;;;;;70.67;31.47;;;5.00;99.90;;;;;;5075882;28;20213;-86
2021/10/12 02:08:43;;;;;;;68.50;32.40;;;5.30;99.90;;;;;;5061498;28;20562;-86
2021/10/12 02:11:09;;;;;;;63.07;31.53;;;5.00;99.90;;;;;;5060468;28;20187;-86
2021/10/12 02:13:34;;;;;;;68.50;31.83;;;5.10;99.90;;;;;;5064757;28;20178;-86
2021/10/12 02:16:00;;;;;;;61.57;31.30;;;4.90;99.90;;;;;;5067165;28;20179;-86
2021/10/12 02:18:26;;;;;;;68.80;32.43;;;;;;;;;;5065431;28;20211;-87
2021/10/12 02:20:52;;;;;;;60.70;31.80;;;5.00;99.90;;;;;;5081569;28;20304;-86
2021/10/12 02:23:18;;;;;;;62.63;31.77;;;4.80;99.90;;;;;;5064060;28;20634;-86
2021/10/12 02:25:44;;;;;;;61.17;31.50;;;4.90;99.90;;;;;;5051205;28;20187;-86
2021/10/12 02:28:10;;;;;;;74.17;32.47;;;4.80;99.90;;;;;;5085145;28;20267;-86
2021/10/12 02:30:36;;;;;;;70.00;33.63;;;;;;;;;;5051526;28;20626;-86
2021/10/12 02:33:02;;;;;;;69.97;32.60;;;;;;;;;;5084523;28;20263;-86
2021/10/12 02:35:30;;;;;;;59.27;31.40;;;4.70;99.90;;;;;;5066399;28;20183;-87
2021/10/12 02:37:56;;;;;;;65.93;31.83;;;;;;;;;;5049564;28;20209;-85
2021/10/12 02:40:22;;;;;;;68.03;32.97;;;4.60;99.90;;;;;;5066445;28;20187;-86
2021/10/12 02:42:48;;;;;;;69.40;32.47;;;4.60;99.90;;;;;;5048513;28;20210;-86
2021/10/12 02:45:14;;;;;;;66.87;32.67;;;;;;;;;;5046801;28;20179;-85
2021/10/12 02:47:39;;;;;;;66.80;32.27;;;4.60;99.90;;;;;;5062669;28;20195;-87
2021/10/12 02:50:07;;;;;;;72.47;35.13;;;4.50;99.90;;;;;;5063202;28;20538;-86
2021/10/12 02:52:33;;;;;;;66.57;33.60;;;4.50;99.90;;;;;;5063343;28;20179;-85
2021/10/12 02:54:59;;;;;;;77.37;35.27;;;4.50;99.90;;;;;;5078850;28;20190;-89
2021/10/12 02:57:25;;;;;;;69.43;34.30;;;4.40;99.90;;;;;;5060604;28;20178;-86
2021/10/12 02:59:51;;;;;;;66.63;33.40;;;4.40;99.90;;;;;;5059280;28;20213;-85
2021/10/12 03:02:17;;;;;;;71.57;34.07;;;5.70;99.90;;;;;;5092921;28;20190;-86
2021/10/12 03:04:43;;;;;;;67.10;33.27;;;4.50;99.90;;;;;;5044216;28;20665;-86
2021/10/12 03:07:09;;;;;;;67.73;33.67;;;4.30;99.90;;;;;;5058473;28;20209;-85
2021/10/12 03:09:35;;;;;;;70.23;34.20;;;4.30;99.90;;;;;;5058740;28;20530;-85
2021/10/12 03:12:00;;;;;;;76.87;35.23;;;4.30;99.90;;;;;;5040797;28;20191;-85
2021/10/12 03:14:26;;;;;;;76.57;36.63;;;;;;;;;;5059365;28;20183;-84
2021/10/12 03:16:52;;;;;;;75.13;34.70;;;4.40;99.90;;;;;;5057635;28;20195;-84
2021/10/12 03:19:18;;;;;;;77.97;35.50;;;;;;;;;;5057474;28;20674;-86
2021/10/12 03:21:51;;;;;;;74.57;34.73;;;4.40;99.90;;;;;;5058444;28;20222;-86
2021/10/12 03:24:17;;;;;;;77.63;34.77;;;5.70;99.90;;;;;;5059819;28;20157;-87
2021/10/12 03:26:43;;;;;;;74.27;37.43;;;4.50;99.90;;;;;;5064325;28;20183;-86
2021/10/12 03:29:09;;;;;;;78.33;37.80;;;4.40;99.90;;;;;;5041646;28;20278;-86
2021/10/12 03:31:34;;;;;;;87.27;43.53;;;5.40;99.90;;;;;;5048305;28;20182;-87
2021/10/12 03:34:00;;;;;;;74.53;36.67;;;4.40;99.90;;;;;;5070404;28;20261;-85
2021/10/12 03:36:25;;;;;;;71.37;36.87;;;4.40;99.90;;;;;;5109519;28;20183;-85
2021/10/12 03:38:51;;;;;;;78.13;37.53;;;4.30;99.90;;;;;;5068617;28;20248;-85
2021/10/12 03:41:17;;;;;;;67.77;35.47;;;4.70;99.90;;;;;;5068662;28;20225;-85
2021/10/12 03:43:42;;;;;;;75.37;35.43;;;4.30;99.90;;;;;;5068525;28;20190;-85
2021/10/12 03:46:08;;;;;;;75.30;37.57;;;4.30;99.90;;;;;;5071672;28;20198;-87
2021/10/12 03:48:34;;;;;;;83.20;38.13;;;3.70;99.90;;;;;;5086272;28;20195;-87
2021/10/12 03:51:00;;;;;;;74.27;37.60;;;;;;;;;;5047760;28;20180;-85
2021/10/12 03:53:25;;;;;;;92.03;47.10;;;4.20;99.90;;;;;;5058538;28;20190;-85
2021/10/12 03:55:51;;;;;;;86.43;41.97;;;;;;;;;;5066976;28;20186;-86
2021/10/12 03:58:17;;;;;;;81.10;38.17;;;4.20;99.90;;;;;;5066576;28;20308;-86
2021/10/12 04:00:43;;;;;;;85.57;38.73;;;4.80;99.90;;;;;;5068440;28;20207;-86
2021/10/12 04:03:08;;;;;;;79.90;39.57;;;4.30;99.90;;;;;;5066609;28;20237;-88
2021/10/12 04:05:34;;;;;;;76.97;37.33;;;;;;;;;;5066979;28;20183;-86
2021/10/12 04:08:00;;;;;;;76.03;36.57;;;4.30;99.90;;;;;;5064635;28;20230;-86
2021/10/12 04:10:26;;;;;;;81.97;38.67;;;4.30;99.90;;;;;;5059809;28;20187;-86
2021/10/12 04:12:51;;;;;;;74.03;38.00;;;5.50;99.90;;;;;;5048647;28;20184;-87
2021/10/12 04:15:17;;;;;;;69.90;36.33;;;4.80;99.90;;;;;;5062090;28;20184;-87
2021/10/12 04:17:43;;;;;;;82.30;37.17;;;4.50;99.90;;;;;;5077055;28;20511;-86
2021/10/12 04:20:09;;;;;;;78.13;36.03;;;4.40;99.90;;;;;;5064584;28;20204;-86
2021/10/12 04:22:35;;;;;;;75.37;36.10;;;4.60;99.90;;;;;;5055070;28;20195;-86
2021/10/12 04:25:01;;;;;;;77.23;35.67;;;4.40;99.90;;;;;;5076107;28;20708;-86
2021/10/12 04:27:27;;;;;;;71.33;35.47;;;4.80;99.90;;;;;;5053013;28;20251;-87
2021/10/12 04:29:53;;;;;;;73.33;35.80;;;4.30;99.90;;;;;;5052895;28;20259;-86
2021/10/12 04:32:18;;;;;;;79.37;36.50;;;4.40;99.90;;;;;;5067203;28;20183;-87
2021/10/12 04:34:44;;;;;;;73.30;36.63;;;4.40;99.90;;;;;;5083842;28;20252;-87
2021/10/12 04:37:10;;;;;;;75.93;34.97;;;4.70;99.90;;;;;;5063574;28;20654;-86
2021/10/12 04:39:36;;;;;;;79.13;36.47;;;;;;;;;;5064302;28;20203;-87
2021/10/12 04:42:04;;;;;;;79.73;37.20;;;4.50;99.90;;;;;;5076332;28;20195;-87
2021/10/12 04:44:32;;;;;;;70.80;35.87;;;4.50;99.90;;;;;;5061667;28;20195;-87
2021/10/12 04:46:58;;;;;;;81.10;39.83;;;5.30;99.90;;;;;;5040976;28;20180;-86
2021/10/12 04:49:24;;;;;;;75.37;38.20;;;4.90;99.90;;;;;;5050087;28;20195;-87
2021/10/12 04:51:49;;;;;;;69.50;35.73;;;4.60;99.90;;;;;;5025311;28;20184;-86
2021/10/12 04:54:15;;;;;;;70.67;35.97;;;;;;;;;;5062969;28;20195;-85
2021/10/12 04:56:41;;;;;;;76.70;37.27;;;4.60;99.90;;;;;;5067632;28;20258;-86
2021/10/12 04:59:10;;;;;;;74.57;36.83;;;4.70;99.90;;;;;;5063037;28;20261;-86
2021/10/12 05:01:35;;;;;;;76.53;36.33;;;4.90;99.90;;;;;;5054895;28;20184;-86
2021/10/12 05:04:01;;;;;;;68.27;35.87;;;4.70;99.90;;;;;;5036929;28;20207;-84
2021/10/12 05:06:27;;;;;;;74.67;36.97;;;4.80;99.90;;;;;;5043497;28;20827;-85
2021/10/12 05:08:54;;;;;;;76.83;36.13;;;;;;;;;;5063640;28;20254;-83
2021/10/12 05:11:20;;;;;;;80.10;38.87;;;4.90;99.90;;;;;;5052144;28;20184;-85
2021/10/12 05:13:47;;;;;;;83.67;35.83;;;4.90;99.90;;;;;;5050198;28;20194;-84
2021/10/12 05:16:13;;;;;;;77.17;35.73;;;;;;;;;;5047562;28;20185;-85
2021/10/12 05:18:42;;;;;;;76.70;37.90;;;4.90;99.90;;;;;;5049303;28;20211;-83
2021/10/12 05:21:08;;;;;;;79.27;36.73;;;4.90;99.90;;;;;;5049670;28;20267;-85
2021/10/12 05:23:33;;;;;;;69.20;36.47;;;5.30;99.90;;;;;;5077766;28;20255;-82
2021/10/12 05:25:59;;;;;;;76.43;36.27;;;;;;;;;;5039561;28;20207;-84
2021/10/12 05:28:25;;;;;;;79.43;35.73;;;4.90;99.90;;;;;;5043611;28;20224;-84
2021/10/12 05:30:51;;;;;;;68.43;35.93;;;;;;;;;;5051991;28;20580;-85
2021/10/12 05:33:19;;;;;;;76.63;36.50;;;4.90;99.90;;;;;;5075711;28;20631;-87
2021/10/12 05:35:47;;;;;;;71.87;35.53;;;4.90;99.90;;;;;;5071424;28;20196;-84
2021/10/12 05:38:14;;;;;;;75.83;35.63;;;4.90;99.90;;;;;;5041446;28;20261;-86
2021/10/12 05:40:41;;;;;;;87.10;39.47;;;4.90;99.90;;;;;;5033654;28;20212;-86
2021/10/12 05:43:07;;;;;;;79.30;39.07;;;;;;;;;;5046844;28;20267;-86
2021/10/12 05:45:34;;;;;;;98.20;42.97;;;4.90;99.90;;;;;;5071046;28;20215;-86
2021/10/12 05:48:00;;;;;;;100.17;46.43;;;5.00;99.90;;;;;;5068368;28;20211;-86
2021/10/12 05:50:26;;;;;;;84.23;41.00;;;5.00;99.90;;;;;;5042336;28;20278;-86
2021/10/12 05:53:22;;;;;;;77.73;38.53;;;5.00;99.90;;;;;;5058489;28;20739;-87
2021/10/12 05:58:14;;;;;;;80.50;38.93;;;5.10;99.90;;;;;;5086950;28;20214;-85
2021/10/12 06:00:40;;;;;;;79.53;37.53;;;5.20;99.90;;;;;;5062516;28;20203;-85
2021/10/12 06:03:06;;;;;;;80.07;38.70;;;;;;;;;;5058471;28;20184;-86
2021/10/12 06:05:34;;;;;;;78.60;38.50;;;5.30;99.90;;;;;;5067575;28;20240;-87
2021/10/12 06:08:00;;;;;;;82.97;40.87;;;;;;;;;;5056509;28;20234;-86
2021/10/12 06:10:25;;;;;;;76.63;37.00;;;5.50;99.90;;;;;;5058405;28;20266;-86
2021/10/12 06:12:51;;;;;;;86.97;38.63;;;;;;;;;;5049210;28;20207;-86
2021/10/12 06:15:18;;;;;;;99.10;43.50;;;;;;;;;;5072425;28;20187;-87
2021/10/12 06:17:43;;;;;;;106.30;44.10;;;5.60;99.90;;;;;;5053647;28;20188;-91
2021/10/12 06:20:09;;;;;;;100.67;43.10;;;6.00;99.90;;;;;;5068400;28;20215;-88
2021/10/12 06:22:35;;;;;;;88.27;41.93;;;;;;;;;;5099521;28;20172;-90
2021/10/12 06:25:01;;;;;;;86.20;41.27;;;5.60;99.90;;;;;;5088617;28;20222;-87
2021/10/12 06:27:27;;;;;;;78.33;39.20;;;;;;;;;;5080498;28;20212;-88
2021/10/12 06:29:53;;;;;;;82.50;39.37;;;5.80;99.90;;;;;;5049888;28;20195;-87
2021/10/12 06:32:21;;;;;;;93.77;40.77;;;6.10;99.90;;;;;;5061587;28;20614;-86
2021/10/12 06:34:47;;;;;;;86.23;38.93;;;;;;;;;;5056379;28;20291;-89
2021/10/12 06:37:13;;;;;;;86.27;39.33;;;;;;;;;;5042521;28;20179;-86
2021/10/12 06:39:39;;;;;;;86.73;39.60;;;;;;;;;;5061523;28;20200;-86
2021/10/12 06:42:05;;;;;;;86.57;38.07;;;;;;;;;;5046502;28;20192;-86
2021/10/12 06:44:31;;;;;;;82.07;38.73;;;;;;;;;;5056876;28;20583;-86
2021/10/12 06:46:57;;;;;;;79.63;38.63;;;;;;;;;;5039091;28;20605;-85
2021/10/12 06:49:26;;;;;;;85.70;38.87;;;;;;;;;;5065604;28;20188;-86
2021/10/12 06:51:54;;;;;;;102.60;41.23;;;;;;;;;;5040898;28;20196;-87
2021/10/12 06:54:20;;;;;;;92.07;41.20;;;;;;;;;;5042706;28;20726;-87
2021/10/12 06:56:48;;;;;;;94.40;40.83;;;;;;;;;;5043928;28;20187;-88
2021/10/12 06:59:17;;;;;;;85.10;39.67;;;6.60;99.90;;;;;;5046527;28;20196;-87
2021/10/12 07:01:52;;;;;;;87.77;38.90;;;6.60;99.90;;;;;;5056695;28;20319;-87
2021/10/12 07:04:18;;;;;;;82.17;37.50;;;;;;;;;;5049387;28;20175;-89
2021/10/12 07:06:44;;;;;;;83.20;36.93;;;;;;;;;;5043532;28;20187;-89
2021/10/12 07:09:16;;;;;;;85.33;35.83;;;;;;;;;;5039981;28;20242;-89
2021/10/12 07:11:42;;;;;;;82.50;36.70;;;;;;;;;;5053018;28;20189;-90
2021/10/12 07:14:08;;;;;;;79.07;32.57;;;;;;;;;;5063071;28;20180;-89
2021/10/12 07:16:34;;;;;;;71.67;32.03;;;;;;;;;;5045723;28;20263;-90
2021/10/12 07:19:00;;;;;;;78.57;31.27;;;;;;;;;;5068759;28;20208;-90
2021/10/12 07:21:27;;;;;;;66.57;28.87;;;;;;;;;;5047938;28;20196;-91
2021/10/12 07:23:53;;;;;;;66.33;27.87;;;;;;;;;;5064797;28;20220;-90
2021/10/12 07:26:34;;;;;;;;;;;;;;;;;;;;;
2021/10/12 07:29:00;;;;;;;74.07;26.80;;;;;;;;;;5038845;28;20271;-88
2021/10/12 07:31:27;;;;;;;66.63;27.53;;;;;;;;;;5064352;28;20234;-89
2021/10/12 07:33:53;;;;;;;77.20;28.13;;;;;;;;;;5072576;28;20250;-90
2021/10/12 07:36:19;;;;;;;70.53;27.10;;;;;;;;;;5050603;28;20233;-91
2021/10/12 07:38:47;;;;;;;72.53;27.60;;;;;;;;;;5066231;28;20231;-93
2021/10/12 07:41:14;;;;;;;66.20;28.27;;;;;;;;;;5075744;28;20202;-91
2021/10/12 07:43:40;;;;;;;77.60;27.30;;;;;;;;;;5048915;28;20175;-93
2021/10/12 07:46:06;;;;;;;73.40;27.27;;;;;;;;;;5049456;28;20191;-90
2021/10/12 07:48:32;;;;;;;78.83;29.50;;;;;;;;;;5047759;28;20187;-92
2021/10/12 07:50:58;;;;;;;78.43;27.67;;;;;;;;;;5075835;28;20188;-94
2021/10/12 07:53:29;;;;;;;78.00;27.33;;;6.80;99.90;;;;;;5043434;28;20195;-93
2021/10/12 07:56:06;;;;;;;79.67;28.57;;;6.90;99.90;;;;;;5044620;28;20181;-90
2021/10/12 07:58:34;;;;;;;88.13;31.30;;;;;;;;;;5040350;28;20212;-93
2021/10/12 08:01:02;;;;;;;81.80;28.13;;;;;;;;;;5070079;28;20185;-92
2021/10/12 08:03:28;;;;;;;80.50;30.87;;;;;;;;;;5051234;28;20181;-95
2021/10/12 08:05:55;;;;;;;75.60;30.77;;;;;;;;;;5069106;28;20181;-92
2021/10/12 08:08:24;;;;;;;85.60;31.77;;;;;;;;;;5075150;28;20235;-93
2021/10/12 08:10:50;;;;;;;81.47;30.73;;;;;;;;;;5034530;28;20635;-92
2021/10/12 08:13:19;;;;;;;91.63;31.83;;;;;;;;;;5063224;28;20268;-93
2021/10/12 08:15:53;;;;;;;76.97;29.13;;;;;;;;;;5051389;28;20251;-92
2021/10/12 08:18:20;;;;;;;87.17;32.40;;;;;;;;;;5041275;28;20244;-91
2021/10/12 08:20:49;;;;;;;90.13;32.50;;;6.90;99.90;;;;;;5071867;28;20284;-92
2021/10/12 08:23:20;;;;;;;87.27;34.60;;;6.90;99.90;;;;;;5035905;28;20208;-94
2021/10/12 08:25:49;;;;;;;98.07;33.70;;;7.00;99.90;;;;;;5037267;28;20185;-93
2021/10/12 08:28:41;;;;;;;87.03;32.00;;;7.00;99.90;;;;;;5039569;28;20177;-93
2021/10/12 08:31:09;;;;;;;92.53;34.40;;;7.00;99.90;;;;;;5051270;28;20256;-91
2021/10/12 08:33:48;;;;;;;85.93;34.60;;;7.00;99.90;;;;;;5057997;28;20704;-93
2021/10/12 08:36:41;;;;;;;95.30;33.30;;;7.10;99.90;;;;;;5052330;28;20219;-93
2021/10/12 08:39:15;;;;;;;89.17;33.83;;;;;;;;;;5038250;28;20200;-93
2021/10/12 08:41:53;;;;;;;98.60;33.60;;;7.00;99.90;;;;;;5069664;28;20188;-91
2021/10/12 08:44:28;;;;;;;97.40;35.43;;;;;;;;;;5043704;28;20594;-95
2021/10/12 08:46:55;;;;;;;96.10;32.10;;;7.10;99.90;;;;;;5037169;28;20207;-95
2021/10/12 08:49:22;;;;;;;104.87;33.00;;;;;;;;;;5060700;28;20208;-93
2021/10/12 08:51:48;;;;;;;83.90;31.60;;;;;;;;;;5053910;28;20271;-92
2021/10/12 08:54:14;;;;;;;99.23;34.03;;;;;;;;;;5038098;28;20181;-92
2021/10/12 08:56:43;;;;;;;84.40;31.93;;;;;;;;;;5063842;28;20184;-92
2021/10/12 08:59:18;;;;;;;87.93;32.27;;;7.20;99.90;;;;;;5062869;28;20227;-94
2021/10/12 09:01:58;;;;;;;95.70;32.33;;;7.20;99.90;;;;;;5050453;28;20214;-88
2021/10/12 09:04:35;;;;;;;83.87;31.03;;;7.30;99.90;;;;;;5055198;28;20772;-93
2021/10/12 09:07:01;;;;;;;85.37;31.13;;;;;;;;;;5088263;28;20245;-92
2021/10/12 09:09:46;;;;;;;;;;;;;;;;;;;;;
2021/10/12 09:12:14;;;;;;;78.40;29.43;;;;;;;;;;5057070;28;20179;-94
2021/10/12 09:14:58;;;;;;;79.40;27.37;;;7.50;99.90;;;;;;5071192;28;20184;-92
2021/10/12 09:17:29;;;;;;;70.80;29.20;;;7.50;99.90;;;;;;5054818;28;20187;-92
2021/10/12 09:19:56;;;;;;;77.90;29.33;;;;;;;;;;5046939;28;20212;-93
2021/10/12 09:22:29;;;;;;;79.37;28.40;;;;;;;;;;5047702;28;20207;-90
2021/10/12 09:25:09;;;;;;;82.97;29.57;;;7.80;99.90;;;;;;5070768;28;20266;-91
2021/10/12 09:27:56;;;;;;;69.93;27.10;;;8.00;99.90;;;;;;5087623;28;20202;-91
2021/10/12 09:30:31;;;;;;;56.93;24.23;;;8.50;99.90;;;;;;5087223;28;20281;-93
2021/10/12 09:33:05;;;;;;;57.60;24.27;;;8.30;99.90;;;;;;5054789;28;20168;-92
2021/10/12 09:38:28;;;;;;;50.20;22.27;;;8.70;99.90;;;;;;5060160;28;20203;-92
2021/10/12 09:41:11;;;;;;;54.63;25.03;;;8.60;99.90;;;;;;5055259;28;20188;-90
2021/10/12 09:43:37;;;;;;;51.73;23.57;;;;;;;;;;5072401;28;20199;-92
2021/10/12 09:46:26;;;;;;;57.77;24.90;;;8.70;99.90;;;;;;5058034;28;20203;-91
2021/10/12 09:48:55;;;;;;;49.00;21.93;;;;;;;;;;5053692;28;20278;-90
2021/10/12 09:51:36;;;;;;;53.73;21.93;;;;;;;;;;5053388;28;20275;-92
2021/10/12 09:54:02;;;;;;;43.50;19.57;;;;;;;;;;5057620;28;20631;-90
2021/10/12 09:56:46;;;;;;;45.83;20.93;;;8.60;99.90;;;;;;5060043;28;20171;-94
2021/10/12 09:59:12;;;;;;;36.20;17.80;;;;;;;;;;5051218;28;20215;-92
2021/10/12 10:01:38;;;;;;;41.63;17.33;;;8.70;99.90;;;;;;5061245;28;20219;-93
2021/10/12 10:04:12;;;;;;;32.77;16.83;;;8.70;99.90;;;;;;5037748;28;20193;-90
2021/10/12 10:06:43;;;;;;;29.20;14.97;;;8.80;99.90;;;;;;5060819;28;20215;-90
2021/10/12 10:09:30;;;;;;;37.00;16.33;;;8.80;99.90;;;;;;5057096;28;20269;-91
2021/10/12 10:11:56;;;;;;;28.00;13.57;;;;;;;;;;5041664;28;20192;-91
2021/10/12 10:14:22;;;;;;;32.10;14.53;;;;;;;;;;5057201;28;20540;-89
2021/10/12 10:17:03;;;;;;;31.33;13.90;;;8.70;99.90;;;;;;5064320;28;20184;-93
2021/10/12 10:19:45;;;;;;;34.13;14.20;;;9.00;99.90;;;;;;5079370;28;20908;-90
2021/10/12 10:22:52;;;;;;;34.57;14.77;;;8.80;99.90;;;;;;5077395;28;20199;-94
2021/10/12 10:25:33;;;;;;;32.97;13.90;;;8.70;99.90;;;;;;5019507;28;20260;-92
2021/10/12 10:28:22;;;;;;;37.17;14.37;;;8.70;99.90;;;;;;5012834;28;20243;-92
2021/10/12 10:31:07;;;;;;;29.47;14.27;;;8.70;99.90;;;;;;5012921;28;20185;-92
2021/10/12 10:33:35;;;;;;;29.03;14.17;;;8.80;99.90;;;;;;5039634;28;20197;-91
2021/10/12 10:36:15;;;;;;;28.63;15.00;;;8.80;99.90;;;;;;5029418;28;20180;-91
2021/10/12 10:38:47;;;;;;;31.47;14.20;;;8.80;99.90;;;;;;5030230;28;20219;-93
2021/10/12 10:41:14;;;;;;;28.73;14.60;;;;;;;;;;5014011;28;20247;-91
2021/10/12 10:43:51;;;;;;;29.83;13.87;;;8.80;99.90;;;;;;5046530;28;20243;-92
2021/10/12 10:46:34;;;;;;;31.13;14.20;;;8.80;99.90;;;;;;5045897;28;20180;-92
2021/10/12 10:49:07;;;;;;;28.77;14.80;;;8.90;99.90;;;;;;5045923;28;20315;-92
2021/10/12 10:52:21;;;;;;;24.30;13.27;;;9.00;99.90;;;;;;5045429;28;20648;-92
2021/10/12 10:54:48;;;;;;;25.93;12.97;;;;;;;;;;4997179;28;20224;-93
2021/10/12 10:57:20;;;;;;;24.00;12.27;;;9.00;99.90;;;;;;5045027;28;20545;-90
2021/10/12 10:59:46;;;;;;;27.60;13.80;;;9.00;99.90;;;;;;5030106;28;20286;-91
2021/10/12 11:02:33;;;;;;;21.83;12.20;;;9.10;99.90;;;;;;5037429;28;20466;-92
2021/10/12 11:04:59;;;;;;;23.17;11.93;;;;;;;;;;5054771;28;20182;-91
2021/10/12 11:07:27;;;;;;;24.43;12.60;;;9.10;99.90;;;;;;5056114;28;20255;-94
2021/10/12 11:09:54;;;;;;;26.20;12.27;;;9.10;99.90;;;;;;5058716;28;20172;-91
2021/10/12 11:12:33;;;;;;;23.67;11.67;;;9.10;99.90;;;;;;5026936;28;20205;-94
2021/10/12 11:15:18;;;;;;;26.77;12.33;;;9.20;99.90;;;;;;5041501;28;20630;-92
2021/10/12 11:18:12;;;;;;;22.87;13.27;;;9.20;99.90;;;;;;5038354;28;20199;-93
2021/10/12 11:20:48;;;;;;;21.03;11.47;;;9.20;99.90;;;;;;5053662;28;20192;-91
2021/10/12 11:23:57;;;;;;;20.37;12.20;;;9.10;99.90;;;;;;5057915;28;20575;-94
2021/10/12 11:26:26;;;;;;;21.10;11.70;;;9.10;99.90;;;;;;5039331;28;21129;-91
2021/10/12 11:28:56;;;;;;;16.20;10.13;;;9.00;99.90;;;;;;5064409;28;20198;-93
2021/10/12 11:31:25;;;;;;;18.77;11.03;;;9.00;99.90;;;;;;5055833;28;20180;-93
2021/10/12 11:33:54;;;;;;;22.33;11.37;;;8.90;99.90;;;;;;5018007;28;20520;-89
2021/10/12 11:36:22;;;;;;;22.60;11.87;;;8.90;99.90;;;;;;5059287;28;20694;-90
2021/10/12 11:39:02;;;;;;;22.27;12.07;;;8.90;99.90;;;;;;5049376;28;20674;-90
2021/10/12 11:42:04;;;;;;;24.40;11.67;;;9.00;99.90;;;;;;5048586;28;20172;-93
2021/10/12 11:44:30;;;;;;;20.20;11.93;;;9.00;99.90;;;;;;5058121;28;20659;-90
2021/10/12 11:47:03;;;;;;;20.10;11.30;;;9.20;99.90;;;;;;5034122;28;20658;-92
2021/10/12 11:53:21;;;;;;;;;;;;;;;;;;;;;
2021/10/12 11:56:17;;;;;;;;;;;;;;;;;;;;;
2021/10/12 11:59:46;;;;;;;17.80;11.10;;;9.60;99.90;;;;;;5058199;28;20218;-94
2021/10/12 12:02:47;;;;;;;19.10;10.80;;;9.70;99.90;;;;;;5018120;28;20176;-91
2021/10/12 12:05:13;;;;;;;20.40;11.17;;;;;;;;;;5002144;28;20199;-88
2021/10/12 12:07:47;;;;;;;22.77;10.60;;;9.80;99.90;;;;;;5013575;28;20282;-89
2021/10/12 12:10:14;;;;;;;20.17;9.90;;;9.70;99.90;;;;;;5047046;28;20290;-93
2021/10/12 12:12:42;;;;;;;18.93;11.07;;;;;;;;;;5056029;28;20341;-90
2021/10/12 12:15:08;;;;;;;18.83;9.97;;;;;;;;;;5071664;28;20635;-91
2021/10/12 12:17:36;;;;;;;17.27;9.47;;;;;;;;;;5089387;28;20186;-91
2021/10/12 12:20:44;;;;;;;;;;;;;;;;;;;;;
2021/10/12 12:23:11;;;;;;;23.90;10.20;;;;;;;;;;5080688;28;20167;-90
2021/10/12 12:25:39;;;;;;;18.27;10.20;;;9.50;99.90;;;;;;5097097;28;20160;-90
2021/10/12 12:28:13;;;;;;;21.20;12.10;;;9.50;99.90;;;;;;5080377;28;20156;-89
2021/10/12 12:30:56;;;;;;;22.17;11.83;;;9.50;99.90;;;;;;5113617;28;20184;-90
2021/10/12 12:33:22;;;;;;;26.70;12.50;;;;;;;;;;5080049;28;20235;-90
2021/10/12 12:38:31;;;;;;;27.07;15.27;;;9.70;99.90;;;;;;4999611;28;20230;-90
2021/10/12 12:40:58;;;;;;;19.53;11.50;;;;;;;;;;5000546;28;20175;-87
2021/10/12 12:43:25;;;;;;;20.30;12.00;;;9.80;99.90;;;;;;5015900;28;20175;-90
2021/10/12 12:46:14;;;;;;;23.13;12.10;;;9.70;99.90;;;;;;5016009;28;20181;-90
2021/10/12 12:48:42;;;;;;;23.03;13.73;;;9.80;99.90;;;;;;4996494;28;20198;-92
2021/10/12 12:51:12;;;;;;;24.47;11.30;;;9.80;99.90;;;;;;4993292;28;20238;-92
2021/10/12 12:53:48;;;;;;;22.07;11.07;;;10.00;99.90;;;;;;4999989;28;20170;-91
2021/10/12 12:56:16;;;;;;;20.67;11.53;;;9.70;99.90;;;;;;4998279;28;20154;-90
2021/10/12 12:58:43;;;;;;;25.00;11.43;;;9.60;99.90;;;;;;4997597;28;20214;-89
2021/10/12 13:01:13;;;;;;;24.60;12.17;;;9.70;99.90;;;;;;4978999;28;20206;-90
2021/10/12 13:03:42;;;;;;;21.40;11.43;;;;;;;;;;4993501;28;20170;-90
2021/10/12 13:06:08;;;;;;;23.83;11.40;;;9.60;99.90;;;;;;4992563;28;20185;-91
2021/10/12 13:08:37;;;;;;;25.57;11.30;;;9.50;99.90;;;;;;4977645;28;20179;-92
2021/10/12 13:11:06;;;;;;;21.97;12.17;;;;;;;;;;4962892;28;20178;-91
2021/10/12 13:13:34;;;;;;;23.50;11.33;;;;;;;;;;4977328;28;20341;-92
2021/10/12 13:16:03;;;;;;;21.53;12.63;;;;;;;;;;4976928;28;20194;-91
2021/10/12 13:18:29;;;;;;;26.70;12.67;;;;;;;;;;4975513;28;20191;-91
2021/10/12 13:20:55;;;;;;;25.60;12.13;;;;;;;;;;4975911;28;20233;-90
2021/10/12 13:23:32;;;;;;;23.30;12.93;;;9.20;99.90;;;;;;4976016;28;20182;-93
2021/10/12 13:29:51;;;;;;;34.30;16.77;;;9.20;99.90;;;;;;4972896;28;20214;-92
2021/10/12 13:32:27;;;;;;;32.43;15.23;;;9.20;99.90;;;;;;4957997;28;20195;-92
2021/10/12 13:34:53;;;;;;;26.97;16.20;;;;;;;;;;4960804;28;20332;-90
2021/10/12 13:37:30;;;;;;;28.37;15.37;;;10.50;99.90;;;;;;4973333;28;20230;-91
2021/10/12 13:39:58;;;;;;;25.53;13.43;;;11.70;99.90;;;;;;4971900;28;20333;-91
2021/10/12 13:42:24;;;;;;;20.73;10.17;;;;;;;;;;4973609;28;20183;-91
2021/10/12 13:45:08;;;;;;;20.17;10.30;;;12.80;99.90;;;;;;4975528;28;20222;-91